sensor_id;sensor_type;location;lat;lon;timestamp;P1;durP1;ratioP1;P2;durP2;ratioP2
74528;SDS011;63009;52.584;5.932;2023-07-13T00:00:29;11.80;;;2.75;;
74528;SDS011;63009;52.584;5.932;2023-07-13T00:02:57;11.40;;;2.50;;
74528;SDS011;63009;52.584;5.932;2023-07-13T00:05:22;9.65;;;2.08;;
74528;SDS011;63009;52.584;5.932;2023-07-13T00:07:49;10.93;;;2.28;;
74528;SDS011;63009;52.584;5.932;2023-07-13T00:10:15;9.85;;;1.90;;
74528;SDS011;63009;52.584;5.932;2023-07-13T00:12:42;12.52;;;3.00;;
74528;SDS011;63009;52.584;5.932;2023-07-13T00:15:18;9.05;;;2.40;;
74528;SDS011;63009;52.584;5.932;2023-07-13T00:17:51;14.25;;;2.63;;
74528;SDS011;63009;52.584;5.932;2023-07-13T00:20:18;11.70;;;2.45;;
74528;SDS011;63009;52.584;5.932;2023-07-13T00:22:46;12.32;;;3.03;;
74528;SDS011;63009;52.584;5.932;2023-07-13T00:25:12;14.60;;;2.50;;
74528;SDS011;63009;52.584;5.932;2023-07-13T00:27:38;11.27;;;2.47;;
74528;SDS011;63009;52.584;5.932;2023-07-13T00:30:04;11.88;;;2.35;;
74528;SDS011;63009;52.584;5.932;2023-07-13T00:32:30;14.15;;;2.92;;
74528;SDS011;63009;52.584;5.932;2023-07-13T00:34:56;9.27;;;2.45;;
74528;SDS011;63009;52.584;5.932;2023-07-13T00:37:23;11.40;;;2.28;;
74528;SDS011;63009;52.584;5.932;2023-07-13T00:39:48;13.52;;;2.78;;
74528;SDS011;63009;52.584;5.932;2023-07-13T00:42:14;11.38;;;2.53;;
74528;SDS011;63009;52.584;5.932;2023-07-13T00:44:40;18.92;;;3.63;;
74528;SDS011;63009;52.584;5.932;2023-07-13T00:47:05;12.07;;;2.58;;
74528;SDS011;63009;52.584;5.932;2023-07-13T00:49:31;10.52;;;2.30;;
74528;SDS011;63009;52.584;5.932;2023-07-13T00:52:00;13.35;;;2.90;;
74528;SDS011;63009;52.584;5.932;2023-07-13T00:54:37;12.38;;;2.85;;
74528;SDS011;63009;52.584;5.932;2023-07-13T00:57:07;11.77;;;3.05;;
74528;SDS011;63009;52.584;5.932;2023-07-13T00:59:36;11.30;;;3.17;;
74528;SDS011;63009;52.584;5.932;2023-07-13T01:02:05;10.77;;;3.05;;
74528;SDS011;63009;52.584;5.932;2023-07-13T01:04:30;15.38;;;3.20;;
74528;SDS011;63009;52.584;5.932;2023-07-13T01:06:56;10.98;;;3.00;;
74528;SDS011;63009;52.584;5.932;2023-07-13T01:09:22;12.27;;;2.90;;
74528;SDS011;63009;52.584;5.932;2023-07-13T01:11:48;10.95;;;2.97;;
74528;SDS011;63009;52.584;5.932;2023-07-13T01:14:14;12.32;;;2.53;;
74528;SDS011;63009;52.584;5.932;2023-07-13T01:16:40;12.38;;;3.10;;
74528;SDS011;63009;52.584;5.932;2023-07-13T01:19:12;12.75;;;2.65;;
74528;SDS011;63009;52.584;5.932;2023-07-13T01:21:39;11.80;;;2.80;;
74528;SDS011;63009;52.584;5.932;2023-07-13T01:24:07;12.40;;;3.10;;
74528;SDS011;63009;52.584;5.932;2023-07-13T01:26:34;10.68;;;3.13;;
74528;SDS011;63009;52.584;5.932;2023-07-13T01:28:59;15.95;;;3.17;;
74528;SDS011;63009;52.584;5.932;2023-07-13T01:31:25;17.70;;;3.50;;
74528;SDS011;63009;52.584;5.932;2023-07-13T01:33:50;11.40;;;3.53;;
74528;SDS011;63009;52.584;5.932;2023-07-13T01:36:16;11.50;;;2.58;;
74528;SDS011;63009;52.584;5.932;2023-07-13T01:38:41;13.23;;;3.60;;
74528;SDS011;63009;52.584;5.932;2023-07-13T01:41:07;12.77;;;2.90;;
74528;SDS011;63009;52.584;5.932;2023-07-13T01:43:33;10.40;;;2.97;;
74528;SDS011;63009;52.584;5.932;2023-07-13T01:45:58;14.05;;;3.40;;
74528;SDS011;63009;52.584;5.932;2023-07-13T01:48:23;13.13;;;3.63;;
74528;SDS011;63009;52.584;5.932;2023-07-13T01:50:49;11.82;;;3.83;;
74528;SDS011;63009;52.584;5.932;2023-07-13T01:53:15;14.63;;;3.33;;
74528;SDS011;63009;52.584;5.932;2023-07-13T01:55:41;13.50;;;2.78;;
74528;SDS011;63009;52.584;5.932;2023-07-13T01:58:07;11.93;;;2.58;;
74528;SDS011;63009;52.584;5.932;2023-07-13T02:00:33;15.05;;;3.08;;
74528;SDS011;63009;52.584;5.932;2023-07-13T02:02:58;13.48;;;2.78;;
74528;SDS011;63009;52.584;5.932;2023-07-13T02:05:24;12.75;;;3.53;;
74528;SDS011;63009;52.584;5.932;2023-07-13T02:07:49;11.68;;;2.55;;
74528;SDS011;63009;52.584;5.932;2023-07-13T02:10:15;14.90;;;2.88;;
74528;SDS011;63009;52.584;5.932;2023-07-13T02:12:41;11.23;;;2.80;;
74528;SDS011;63009;52.584;5.932;2023-07-13T02:15:07;15.52;;;3.40;;
74528;SDS011;63009;52.584;5.932;2023-07-13T02:17:34;13.60;;;2.50;;
74528;SDS011;63009;52.584;5.932;2023-07-13T02:20:01;10.80;;;2.88;;
74528;SDS011;63009;52.584;5.932;2023-07-13T02:22:26;9.65;;;2.53;;
74528;SDS011;63009;52.584;5.932;2023-07-13T02:24:52;12.60;;;2.97;;
74528;SDS011;63009;52.584;5.932;2023-07-13T02:27:17;10.05;;;2.78;;
74528;SDS011;63009;52.584;5.932;2023-07-13T02:29:43;13.35;;;2.70;;
74528;SDS011;63009;52.584;5.932;2023-07-13T02:32:09;12.13;;;3.00;;
74528;SDS011;63009;52.584;5.932;2023-07-13T02:34:34;14.15;;;2.58;;
74528;SDS011;63009;52.584;5.932;2023-07-13T02:37:00;12.25;;;2.97;;
74528;SDS011;63009;52.584;5.932;2023-07-13T02:39:25;12.48;;;3.25;;
74528;SDS011;63009;52.584;5.932;2023-07-13T02:41:51;12.32;;;2.38;;
74528;SDS011;63009;52.584;5.932;2023-07-13T02:44:16;10.27;;;2.63;;
74528;SDS011;63009;52.584;5.932;2023-07-13T02:46:41;13.38;;;2.85;;
74528;SDS011;63009;52.584;5.932;2023-07-13T02:49:07;10.88;;;2.60;;
74528;SDS011;63009;52.584;5.932;2023-07-13T02:51:32;11.10;;;3.13;;
74528;SDS011;63009;52.584;5.932;2023-07-13T02:58:55;13.38;;;3.22;;
74528;SDS011;63009;52.584;5.932;2023-07-13T03:01:21;12.95;;;2.53;;
74528;SDS011;63009;52.584;5.932;2023-07-13T03:03:48;7.95;;;2.58;;
74528;SDS011;63009;52.584;5.932;2023-07-13T03:06:14;11.18;;;3.38;;
74528;SDS011;63009;52.584;5.932;2023-07-13T03:08:40;8.95;;;2.50;;
74528;SDS011;63009;52.584;5.932;2023-07-13T03:11:10;12.75;;;2.60;;
74528;SDS011;63009;52.584;5.932;2023-07-13T03:13:40;10.57;;;2.95;;
74528;SDS011;63009;52.584;5.932;2023-07-13T03:16:07;10.77;;;3.47;;
74528;SDS011;63009;52.584;5.932;2023-07-13T03:18:34;12.38;;;2.70;;
74528;SDS011;63009;52.584;5.932;2023-07-13T03:21:00;13.00;;;2.90;;
74528;SDS011;63009;52.584;5.932;2023-07-13T03:23:26;9.57;;;2.60;;
74528;SDS011;63009;52.584;5.932;2023-07-13T03:26:00;13.27;;;2.72;;
74528;SDS011;63009;52.584;5.932;2023-07-13T03:28:31;9.40;;;2.83;;
74528;SDS011;63009;52.584;5.932;2023-07-13T03:31:13;9.68;;;3.42;;
74528;SDS011;63009;52.584;5.932;2023-07-13T03:33:43;9.07;;;2.45;;
74528;SDS011;63009;52.584;5.932;2023-07-13T03:36:13;11.40;;;2.97;;
74528;SDS011;63009;52.584;5.932;2023-07-13T03:38:47;12.85;;;2.55;;
74528;SDS011;63009;52.584;5.932;2023-07-13T03:41:15;10.75;;;2.70;;
74528;SDS011;63009;52.584;5.932;2023-07-13T03:43:41;8.32;;;2.20;;
74528;SDS011;63009;52.584;5.932;2023-07-13T03:46:07;12.50;;;2.78;;
74528;SDS011;63009;52.584;5.932;2023-07-13T03:48:32;10.38;;;2.67;;
74528;SDS011;63009;52.584;5.932;2023-07-13T03:50:58;9.80;;;2.95;;
74528;SDS011;63009;52.584;5.932;2023-07-13T03:53:23;11.95;;;3.45;;
74528;SDS011;63009;52.584;5.932;2023-07-13T03:55:48;10.55;;;2.70;;
74528;SDS011;63009;52.584;5.932;2023-07-13T03:58:27;10.67;;;3.20;;
74528;SDS011;63009;52.584;5.932;2023-07-13T04:00:53;11.32;;;3.45;;
74528;SDS011;63009;52.584;5.932;2023-07-13T04:03:19;13.32;;;2.97;;
74528;SDS011;63009;52.584;5.932;2023-07-13T04:05:44;10.63;;;2.92;;
74528;SDS011;63009;52.584;5.932;2023-07-13T04:08:09;11.50;;;2.83;;
74528;SDS011;63009;52.584;5.932;2023-07-13T04:10:35;10.77;;;2.80;;
74528;SDS011;63009;52.584;5.932;2023-07-13T04:13:03;9.80;;;2.97;;
74528;SDS011;63009;52.584;5.932;2023-07-13T04:15:29;10.63;;;2.50;;
74528;SDS011;63009;52.584;5.932;2023-07-13T04:17:56;16.95;;;3.58;;
74528;SDS011;63009;52.584;5.932;2023-07-13T04:20:22;14.10;;;2.88;;
74528;SDS011;63009;52.584;5.932;2023-07-13T04:22:47;13.57;;;3.00;;
74528;SDS011;63009;52.584;5.932;2023-07-13T04:25:12;12.35;;;2.95;;
74528;SDS011;63009;52.584;5.932;2023-07-13T04:27:38;13.00;;;3.85;;
74528;SDS011;63009;52.584;5.932;2023-07-13T04:30:04;11.60;;;3.30;;
74528;SDS011;63009;52.584;5.932;2023-07-13T04:32:30;10.00;;;3.25;;
74528;SDS011;63009;52.584;5.932;2023-07-13T04:34:57;9.32;;;3.30;;
74528;SDS011;63009;52.584;5.932;2023-07-13T04:37:24;8.30;;;2.70;;
74528;SDS011;63009;52.584;5.932;2023-07-13T04:39:50;12.95;;;2.92;;
74528;SDS011;63009;52.584;5.932;2023-07-13T04:42:15;13.43;;;3.08;;
74528;SDS011;63009;52.584;5.932;2023-07-13T04:44:41;10.50;;;2.80;;
74528;SDS011;63009;52.584;5.932;2023-07-13T04:47:06;11.98;;;3.40;;
74528;SDS011;63009;52.584;5.932;2023-07-13T04:49:32;10.27;;;3.20;;
74528;SDS011;63009;52.584;5.932;2023-07-13T04:51:57;11.52;;;3.25;;
74528;SDS011;63009;52.584;5.932;2023-07-13T04:54:22;8.98;;;2.92;;
74528;SDS011;63009;52.584;5.932;2023-07-13T04:56:48;11.20;;;2.95;;
74528;SDS011;63009;52.584;5.932;2023-07-13T04:59:13;11.90;;;3.43;;
74528;SDS011;63009;52.584;5.932;2023-07-13T05:01:38;12.65;;;3.40;;
74528;SDS011;63009;52.584;5.932;2023-07-13T05:04:05;10.70;;;3.15;;
74528;SDS011;63009;52.584;5.932;2023-07-13T05:06:30;11.65;;;3.22;;
74528;SDS011;63009;52.584;5.932;2023-07-13T05:08:56;14.00;;;4.03;;
74528;SDS011;63009;52.584;5.932;2023-07-13T05:11:21;13.65;;;2.95;;
74528;SDS011;63009;52.584;5.932;2023-07-13T05:13:47;9.65;;;2.70;;
74528;SDS011;63009;52.584;5.932;2023-07-13T05:16:12;14.25;;;3.08;;
74528;SDS011;63009;52.584;5.932;2023-07-13T05:18:37;11.15;;;3.35;;
74528;SDS011;63009;52.584;5.932;2023-07-13T05:21:04;8.05;;;2.40;;
74528;SDS011;63009;52.584;5.932;2023-07-13T05:23:32;12.43;;;3.03;;
74528;SDS011;63009;52.584;5.932;2023-07-13T05:25:58;12.90;;;3.42;;
74528;SDS011;63009;52.584;5.932;2023-07-13T05:28:25;9.27;;;2.92;;
74528;SDS011;63009;52.584;5.932;2023-07-13T05:30:51;10.02;;;2.90;;
74528;SDS011;63009;52.584;5.932;2023-07-13T05:33:16;12.15;;;3.00;;
74528;SDS011;63009;52.584;5.932;2023-07-13T05:35:42;10.75;;;3.08;;
74528;SDS011;63009;52.584;5.932;2023-07-13T05:38:07;9.55;;;2.50;;
74528;SDS011;63009;52.584;5.932;2023-07-13T05:40:33;7.00;;;2.08;;
74528;SDS011;63009;52.584;5.932;2023-07-13T05:42:58;11.88;;;3.22;;
74528;SDS011;63009;52.584;5.932;2023-07-13T05:45:24;11.43;;;2.95;;
74528;SDS011;63009;52.584;5.932;2023-07-13T05:47:49;11.07;;;2.85;;
74528;SDS011;63009;52.584;5.932;2023-07-13T05:50:15;11.05;;;3.13;;
74528;SDS011;63009;52.584;5.932;2023-07-13T05:52:40;10.73;;;2.65;;
74528;SDS011;63009;52.584;5.932;2023-07-13T05:55:06;9.68;;;2.95;;
74528;SDS011;63009;52.584;5.932;2023-07-13T05:57:31;11.52;;;3.33;;
74528;SDS011;63009;52.584;5.932;2023-07-13T05:59:57;11.68;;;2.60;;
74528;SDS011;63009;52.584;5.932;2023-07-13T06:02:22;11.70;;;2.70;;
74528;SDS011;63009;52.584;5.932;2023-07-13T06:04:48;11.30;;;2.85;;
74528;SDS011;63009;52.584;5.932;2023-07-13T06:07:13;12.07;;;3.53;;
74528;SDS011;63009;52.584;5.932;2023-07-13T06:09:38;17.97;;;3.50;;
74528;SDS011;63009;52.584;5.932;2023-07-13T06:12:04;15.05;;;2.85;;
74528;SDS011;63009;52.584;5.932;2023-07-13T06:14:30;9.60;;;3.25;;
74528;SDS011;63009;52.584;5.932;2023-07-13T06:16:55;11.77;;;2.50;;
74528;SDS011;63009;52.584;5.932;2023-07-13T06:19:20;15.35;;;4.72;;
74528;SDS011;63009;52.584;5.932;2023-07-13T06:21:46;10.93;;;3.03;;
74528;SDS011;63009;52.584;5.932;2023-07-13T06:24:11;15.48;;;3.35;;
74528;SDS011;63009;52.584;5.932;2023-07-13T06:26:36;11.50;;;3.22;;
74528;SDS011;63009;52.584;5.932;2023-07-13T06:29:02;11.13;;;4.38;;
74528;SDS011;63009;52.584;5.932;2023-07-13T06:31:27;9.32;;;2.63;;
74528;SDS011;63009;52.584;5.932;2023-07-13T06:33:53;10.68;;;3.13;;
74528;SDS011;63009;52.584;5.932;2023-07-13T06:36:18;13.90;;;3.40;;
74528;SDS011;63009;52.584;5.932;2023-07-13T06:38:43;12.90;;;3.08;;
74528;SDS011;63009;52.584;5.932;2023-07-13T06:41:09;13.35;;;3.42;;
74528;SDS011;63009;52.584;5.932;2023-07-13T06:43:34;11.95;;;3.20;;
74528;SDS011;63009;52.584;5.932;2023-07-13T06:46:00;13.63;;;4.43;;
74528;SDS011;63009;52.584;5.932;2023-07-13T06:48:26;12.07;;;3.30;;
74528;SDS011;63009;52.584;5.932;2023-07-13T06:50:51;13.70;;;3.83;;
74528;SDS011;63009;52.584;5.932;2023-07-13T06:53:18;15.63;;;4.45;;
74528;SDS011;63009;52.584;5.932;2023-07-13T06:55:44;10.70;;;3.72;;
74528;SDS011;63009;52.584;5.932;2023-07-13T06:58:10;14.07;;;4.43;;
74528;SDS011;63009;52.584;5.932;2023-07-13T07:00:36;12.43;;;4.28;;
74528;SDS011;63009;52.584;5.932;2023-07-13T07:03:01;14.13;;;5.85;;
74528;SDS011;63009;52.584;5.932;2023-07-13T07:05:27;12.88;;;4.38;;
74528;SDS011;63009;52.584;5.932;2023-07-13T07:07:54;11.75;;;4.88;;
74528;SDS011;63009;52.584;5.932;2023-07-13T07:10:20;14.93;;;4.22;;
74528;SDS011;63009;52.584;5.932;2023-07-13T07:12:46;11.73;;;4.43;;
74528;SDS011;63009;52.584;5.932;2023-07-13T07:15:12;15.70;;;4.60;;
74528;SDS011;63009;52.584;5.932;2023-07-13T07:17:38;17.08;;;5.22;;
74528;SDS011;63009;52.584;5.932;2023-07-13T07:20:04;12.45;;;4.25;;
74528;SDS011;63009;52.584;5.932;2023-07-13T07:22:30;14.55;;;4.47;;
74528;SDS011;63009;52.584;5.932;2023-07-13T07:24:56;12.90;;;4.82;;
74528;SDS011;63009;52.584;5.932;2023-07-13T07:27:22;14.48;;;4.30;;
74528;SDS011;63009;52.584;5.932;2023-07-13T07:29:48;13.82;;;4.28;;
74528;SDS011;63009;52.584;5.932;2023-07-13T07:32:14;14.05;;;4.90;;
74528;SDS011;63009;52.584;5.932;2023-07-13T07:34:39;15.45;;;4.80;;
74528;SDS011;63009;52.584;5.932;2023-07-13T07:37:05;14.68;;;4.15;;
74528;SDS011;63009;52.584;5.932;2023-07-13T07:39:31;13.70;;;4.65;;
74528;SDS011;63009;52.584;5.932;2023-07-13T07:41:57;14.35;;;4.60;;
74528;SDS011;63009;52.584;5.932;2023-07-13T07:44:23;15.55;;;4.95;;
74528;SDS011;63009;52.584;5.932;2023-07-13T07:46:48;13.20;;;4.60;;
74528;SDS011;63009;52.584;5.932;2023-07-13T07:49:14;16.67;;;4.57;;
74528;SDS011;63009;52.584;5.932;2023-07-13T07:51:39;13.65;;;4.20;;
74528;SDS011;63009;52.584;5.932;2023-07-13T07:54:05;10.55;;;4.38;;
74528;SDS011;63009;52.584;5.932;2023-07-13T07:56:31;13.80;;;4.00;;
74528;SDS011;63009;52.584;5.932;2023-07-13T07:58:57;15.05;;;4.00;;
74528;SDS011;63009;52.584;5.932;2023-07-13T08:01:23;14.65;;;5.05;;
74528;SDS011;63009;52.584;5.932;2023-07-13T08:03:48;11.40;;;4.22;;
74528;SDS011;63009;52.584;5.932;2023-07-13T08:06:14;14.38;;;5.05;;
74528;SDS011;63009;52.584;5.932;2023-07-13T08:08:40;12.45;;;4.90;;
74528;SDS011;63009;52.584;5.932;2023-07-13T08:11:06;10.98;;;4.13;;
74528;SDS011;63009;52.584;5.932;2023-07-13T08:13:33;11.98;;;4.53;;
74528;SDS011;63009;52.584;5.932;2023-07-13T08:15:59;16.77;;;5.85;;
74528;SDS011;63009;52.584;5.932;2023-07-13T08:18:24;14.30;;;7.60;;
74528;SDS011;63009;52.584;5.932;2023-07-13T08:20:50;18.63;;;6.65;;
74528;SDS011;63009;52.584;5.932;2023-07-13T08:23:15;15.77;;;5.93;;
74528;SDS011;63009;52.584;5.932;2023-07-13T08:25:41;14.02;;;6.13;;
74528;SDS011;63009;52.584;5.932;2023-07-13T08:28:07;10.77;;;4.15;;
74528;SDS011;63009;52.584;5.932;2023-07-13T08:30:32;13.93;;;4.90;;
74528;SDS011;63009;52.584;5.932;2023-07-13T08:32:58;10.63;;;3.58;;
74528;SDS011;63009;52.584;5.932;2023-07-13T08:35:23;9.70;;;2.78;;
74528;SDS011;63009;52.584;5.932;2023-07-13T08:37:50;11.77;;;3.40;;
74528;SDS011;63009;52.584;5.932;2023-07-13T08:40:16;7.70;;;3.15;;
74528;SDS011;63009;52.584;5.932;2023-07-13T08:42:46;8.70;;;2.85;;
74528;SDS011;63009;52.584;5.932;2023-07-13T08:45:20;8.98;;;2.65;;
74528;SDS011;63009;52.584;5.932;2023-07-13T08:47:52;6.25;;;2.50;;
74528;SDS011;63009;52.584;5.932;2023-07-13T08:50:19;7.85;;;2.20;;
74528;SDS011;63009;52.584;5.932;2023-07-13T08:52:49;7.47;;;2.70;;
74528;SDS011;63009;52.584;5.932;2023-07-13T08:55:16;8.93;;;3.22;;
74528;SDS011;63009;52.584;5.932;2023-07-13T08:57:46;8.98;;;3.47;;
74528;SDS011;63009;52.584;5.932;2023-07-13T09:00:18;6.95;;;3.10;;
74528;SDS011;63009;52.584;5.932;2023-07-13T09:02:56;8.15;;;3.63;;
74528;SDS011;63009;52.584;5.932;2023-07-13T09:05:33;9.57;;;3.30;;
74528;SDS011;63009;52.584;5.932;2023-07-13T09:14:12;11.20;;;3.97;;
74528;SDS011;63009;52.584;5.932;2023-07-13T09:16:55;9.65;;;3.90;;
74528;SDS011;63009;52.584;5.932;2023-07-13T09:19:22;8.85;;;3.40;;
74528;SDS011;63009;52.584;5.932;2023-07-13T09:21:53;8.77;;;3.15;;
74528;SDS011;63009;52.584;5.932;2023-07-13T09:24:29;8.43;;;3.00;;
74528;SDS011;63009;52.584;5.932;2023-07-13T09:27:09;9.05;;;3.20;;
74528;SDS011;63009;52.584;5.932;2023-07-13T09:29:42;9.25;;;3.05;;
74528;SDS011;63009;52.584;5.932;2023-07-13T09:32:12;7.30;;;2.90;;
74528;SDS011;63009;52.584;5.932;2023-07-13T09:34:41;9.93;;;2.75;;
74528;SDS011;63009;52.584;5.932;2023-07-13T09:37:06;8.70;;;2.65;;
74528;SDS011;63009;52.584;5.932;2023-07-13T09:39:50;8.43;;;2.70;;
74528;SDS011;63009;52.584;5.932;2023-07-13T09:42:18;8.02;;;3.20;;
74528;SDS011;63009;52.584;5.932;2023-07-13T09:45:00;8.50;;;2.60;;
74528;SDS011;63009;52.584;5.932;2023-07-13T09:47:31;7.85;;;2.85;;
74528;SDS011;63009;52.584;5.932;2023-07-13T09:50:03;8.23;;;2.75;;
74528;SDS011;63009;52.584;5.932;2023-07-13T09:52:44;11.60;;;2.80;;
74528;SDS011;63009;52.584;5.932;2023-07-13T09:55:30;8.95;;;2.60;;
74528;SDS011;63009;52.584;5.932;2023-07-13T09:58:13;15.02;;;2.88;;
74528;SDS011;63009;52.584;5.932;2023-07-13T10:00:41;9.75;;;3.42;;
74528;SDS011;63009;52.584;5.932;2023-07-13T10:03:23;8.85;;;2.95;;
74528;SDS011;63009;52.584;5.932;2023-07-13T10:06:01;9.00;;;2.90;;
74528;SDS011;63009;52.584;5.932;2023-07-13T10:08:36;10.60;;;2.72;;
74528;SDS011;63009;52.584;5.932;2023-07-13T10:14:00;8.18;;;2.60;;
74528;SDS011;63009;52.584;5.932;2023-07-13T10:16:37;7.88;;;2.20;;
74528;SDS011;63009;52.584;5.932;2023-07-13T10:19:14;7.43;;;2.28;;
74528;SDS011;63009;52.584;5.932;2023-07-13T10:21:56;6.70;;;2.00;;
74528;SDS011;63009;52.584;5.932;2023-07-13T10:24:26;8.27;;;2.50;;
74528;SDS011;63009;52.584;5.932;2023-07-13T10:29:47;6.88;;;2.25;;
74528;SDS011;63009;52.584;5.932;2023-07-13T10:32:17;6.63;;;2.05;;
74528;SDS011;63009;52.584;5.932;2023-07-13T10:34:46;6.57;;;2.05;;
74528;SDS011;63009;52.584;5.932;2023-07-13T10:37:17;7.95;;;2.05;;
74528;SDS011;63009;52.584;5.932;2023-07-13T10:39:45;6.95;;;2.10;;
74528;SDS011;63009;52.584;5.932;2023-07-13T10:42:13;8.95;;;2.42;;
74528;SDS011;63009;52.584;5.932;2023-07-13T10:44:43;9.18;;;2.25;;
74528;SDS011;63009;52.584;5.932;2023-07-13T10:47:11;8.15;;;2.85;;
74528;SDS011;63009;52.584;5.932;2023-07-13T10:49:40;6.18;;;2.00;;
74528;SDS011;63009;52.584;5.932;2023-07-13T10:52:34;9.50;;;2.58;;
74528;SDS011;63009;52.584;5.932;2023-07-13T11:06:10;8.93;;;2.90;;
74528;SDS011;63009;52.584;5.932;2023-07-13T11:09:00;7.93;;;3.10;;
74528;SDS011;63009;52.584;5.932;2023-07-13T11:11:32;9.07;;;2.67;;
74528;SDS011;63009;52.584;5.932;2023-07-13T11:14:01;9.10;;;3.00;;
74528;SDS011;63009;52.584;5.932;2023-07-13T11:16:34;7.47;;;2.58;;
74528;SDS011;63009;52.584;5.932;2023-07-13T11:21:26;6.10;;;2.50;;
74528;SDS011;63009;52.584;5.932;2023-07-13T11:24:03;9.57;;;3.38;;
74528;SDS011;63009;52.584;5.932;2023-07-13T11:26:39;9.93;;;2.50;;
74528;SDS011;63009;52.584;5.932;2023-07-13T11:31:42;10.02;;;2.97;;
74528;SDS011;63009;52.584;5.932;2023-07-13T11:34:15;8.18;;;2.60;;
74528;SDS011;63009;52.584;5.932;2023-07-13T11:36:48;10.75;;;2.75;;
74528;SDS011;63009;52.584;5.932;2023-07-13T11:39:18;9.50;;;3.20;;
74528;SDS011;63009;52.584;5.932;2023-07-13T11:41:53;8.50;;;3.10;;
74528;SDS011;63009;52.584;5.932;2023-07-13T11:44:22;9.13;;;2.67;;
74528;SDS011;63009;52.584;5.932;2023-07-13T11:46:53;8.82;;;2.92;;
74528;SDS011;63009;52.584;5.932;2023-07-13T11:49:21;7.70;;;2.50;;
74528;SDS011;63009;52.584;5.932;2023-07-13T11:54:26;8.55;;;2.45;;
74528;SDS011;63009;52.584;5.932;2023-07-13T11:57:06;7.90;;;2.45;;
74528;SDS011;63009;52.584;5.932;2023-07-13T11:59:51;8.32;;;2.30;;
74528;SDS011;63009;52.584;5.932;2023-07-13T12:04:55;7.20;;;2.40;;
74528;SDS011;63009;52.584;5.932;2023-07-13T12:07:22;9.10;;;2.25;;
74528;SDS011;63009;52.584;5.932;2023-07-13T12:09:47;8.07;;;2.20;;
74528;SDS011;63009;52.584;5.932;2023-07-13T12:12:20;8.15;;;2.53;;
74528;SDS011;63009;52.584;5.932;2023-07-13T12:14:50;8.18;;;2.22;;
74528;SDS011;63009;52.584;5.932;2023-07-13T12:17:20;6.70;;;2.20;;
74528;SDS011;63009;52.584;5.932;2023-07-13T12:19:48;7.57;;;2.25;;
74528;SDS011;63009;52.584;5.932;2023-07-13T12:22:16;8.57;;;2.40;;
74528;SDS011;63009;52.584;5.932;2023-07-13T12:27:26;7.63;;;2.70;;
74528;SDS011;63009;52.584;5.932;2023-07-13T12:32:18;8.57;;;2.33;;
74528;SDS011;63009;52.584;5.932;2023-07-13T12:37:41;8.13;;;2.38;;
74528;SDS011;63009;52.584;5.932;2023-07-13T12:40:18;6.25;;;2.00;;
74528;SDS011;63009;52.584;5.932;2023-07-13T12:42:46;7.95;;;2.45;;
74528;SDS011;63009;52.584;5.932;2023-07-13T12:45:21;7.25;;;1.88;;
74528;SDS011;63009;52.584;5.932;2023-07-13T12:47:49;9.02;;;1.95;;
74528;SDS011;63009;52.584;5.932;2023-07-13T12:50:19;9.70;;;2.35;;
74528;SDS011;63009;52.584;5.932;2023-07-13T12:52:51;7.22;;;1.95;;
74528;SDS011;63009;52.584;5.932;2023-07-13T12:55:18;6.07;;;1.88;;
74528;SDS011;63009;52.584;5.932;2023-07-13T13:00:21;8.15;;;1.98;;
74528;SDS011;63009;52.584;5.932;2023-07-13T13:02:50;10.63;;;2.28;;
74528;SDS011;63009;52.584;5.932;2023-07-13T13:05:17;7.60;;;2.13;;
74528;SDS011;63009;52.584;5.932;2023-07-13T13:07:42;8.23;;;1.88;;
74528;SDS011;63009;52.584;5.932;2023-07-13T13:10:13;7.53;;;2.10;;
74528;SDS011;63009;52.584;5.932;2023-07-13T13:12:39;6.95;;;1.80;;
74528;SDS011;63009;52.584;5.932;2023-07-13T13:15:07;6.45;;;2.00;;
74528;SDS011;63009;52.584;5.932;2023-07-13T13:17:33;7.45;;;2.40;;
74528;SDS011;63009;52.584;5.932;2023-07-13T13:19:59;6.68;;;1.95;;
74528;SDS011;63009;52.584;5.932;2023-07-13T13:22:24;6.88;;;1.58;;
74528;SDS011;63009;52.584;5.932;2023-07-13T13:24:50;6.85;;;2.05;;
74528;SDS011;63009;52.584;5.932;2023-07-13T13:27:16;7.40;;;1.88;;
74528;SDS011;63009;52.584;5.932;2023-07-13T13:29:44;7.45;;;1.85;;
74528;SDS011;63009;52.584;5.932;2023-07-13T13:32:13;8.52;;;2.60;;
74528;SDS011;63009;52.584;5.932;2023-07-13T13:34:40;6.20;;;1.92;;
74528;SDS011;63009;52.584;5.932;2023-07-13T13:37:21;6.70;;;1.92;;
74528;SDS011;63009;52.584;5.932;2023-07-13T13:39:48;8.15;;;1.88;;
74528;SDS011;63009;52.584;5.932;2023-07-13T13:42:16;7.93;;;1.92;;
74528;SDS011;63009;52.584;5.932;2023-07-13T13:44:41;10.13;;;2.15;;
74528;SDS011;63009;52.584;5.932;2023-07-13T13:47:07;9.00;;;2.22;;
74528;SDS011;63009;52.584;5.932;2023-07-13T13:50:01;5.90;;;1.85;;
74528;SDS011;63009;52.584;5.932;2023-07-13T13:52:27;7.18;;;2.13;;
74528;SDS011;63009;52.584;5.932;2023-07-13T13:54:52;6.22;;;2.03;;
74528;SDS011;63009;52.584;5.932;2023-07-13T13:57:23;8.55;;;2.35;;
74528;SDS011;63009;52.584;5.932;2023-07-13T13:59:49;6.82;;;1.95;;
74528;SDS011;63009;52.584;5.932;2023-07-13T14:02:26;8.80;;;2.45;;
74528;SDS011;63009;52.584;5.932;2023-07-13T14:04:54;7.28;;;2.00;;
74528;SDS011;63009;52.584;5.932;2023-07-13T14:07:22;7.05;;;1.77;;
74528;SDS011;63009;52.584;5.932;2023-07-13T14:09:47;8.50;;;2.13;;
74528;SDS011;63009;52.584;5.932;2023-07-13T14:12:13;9.63;;;2.17;;
74528;SDS011;63009;52.584;5.932;2023-07-13T14:14:38;8.20;;;2.20;;
74528;SDS011;63009;52.584;5.932;2023-07-13T14:17:04;7.00;;;2.08;;
74528;SDS011;63009;52.584;5.932;2023-07-13T14:19:29;7.00;;;2.05;;
74528;SDS011;63009;52.584;5.932;2023-07-13T14:21:55;6.87;;;1.80;;
74528;SDS011;63009;52.584;5.932;2023-07-13T14:24:20;8.05;;;2.00;;
74528;SDS011;63009;52.584;5.932;2023-07-13T14:26:46;6.30;;;2.10;;
74528;SDS011;63009;52.584;5.932;2023-07-13T14:29:16;8.38;;;2.05;;
74528;SDS011;63009;52.584;5.932;2023-07-13T14:31:43;6.90;;;2.22;;
74528;SDS011;63009;52.584;5.932;2023-07-13T14:34:10;6.80;;;2.28;;
74528;SDS011;63009;52.584;5.932;2023-07-13T14:36:38;10.05;;;3.03;;
74528;SDS011;63009;52.584;5.932;2023-07-13T14:39:14;8.95;;;2.22;;
74528;SDS011;63009;52.584;5.932;2023-07-13T14:41:41;9.90;;;2.50;;
74528;SDS011;63009;52.584;5.932;2023-07-13T14:44:17;7.32;;;2.67;;
74528;SDS011;63009;52.584;5.932;2023-07-13T14:46:45;8.60;;;3.00;;
74528;SDS011;63009;52.584;5.932;2023-07-13T14:51:49;6.28;;;2.17;;
74528;SDS011;63009;52.584;5.932;2023-07-13T14:54:15;7.13;;;2.50;;
74528;SDS011;63009;52.584;5.932;2023-07-13T14:56:40;7.40;;;2.25;;
74528;SDS011;63009;52.584;5.932;2023-07-13T14:59:06;6.80;;;2.00;;
74528;SDS011;63009;52.584;5.932;2023-07-13T15:01:32;9.55;;;2.50;;
74528;SDS011;63009;52.584;5.932;2023-07-13T15:03:59;9.93;;;2.58;;
74528;SDS011;63009;52.584;5.932;2023-07-13T15:06:24;8.63;;;2.80;;
74528;SDS011;63009;52.584;5.932;2023-07-13T15:08:50;9.05;;;2.42;;
74528;SDS011;63009;52.584;5.932;2023-07-13T15:11:15;9.55;;;2.50;;
74528;SDS011;63009;52.584;5.932;2023-07-13T15:13:41;7.85;;;2.67;;
74528;SDS011;63009;52.584;5.932;2023-07-13T15:16:21;8.38;;;2.92;;
74528;SDS011;63009;52.584;5.932;2023-07-13T15:18:49;9.95;;;2.83;;
74528;SDS011;63009;52.584;5.932;2023-07-13T15:21:24;6.82;;;2.60;;
74528;SDS011;63009;52.584;5.932;2023-07-13T15:23:50;10.32;;;2.88;;
74528;SDS011;63009;52.584;5.932;2023-07-13T15:26:16;7.22;;;2.30;;
74528;SDS011;63009;52.584;5.932;2023-07-13T15:28:44;8.48;;;2.60;;
74528;SDS011;63009;52.584;5.932;2023-07-13T15:31:24;8.68;;;2.38;;
74528;SDS011;63009;52.584;5.932;2023-07-13T15:33:53;8.43;;;2.15;;
74528;SDS011;63009;52.584;5.932;2023-07-13T15:36:20;7.25;;;2.55;;